createdAt,value
2018-05-18T00:01:37.709Z,97039.33
2018-05-18T00:04:03.568Z,97041.81
2018-05-18T00:06:29.428Z,97043.13
2018-05-18T00:08:55.325Z,97043.15
2018-05-18T00:11:21.184Z,97038.38
2018-05-18T00:13:47.041Z,97039.31
2018-05-18T00:16:12.869Z,97041.09
2018-05-18T00:18:38.736Z,97037.49
2018-05-18T00:21:04.620Z,97036.43
2018-05-18T00:23:30.481Z,97041.02
2018-05-18T00:25:56.377Z,97038.08
2018-05-18T00:28:22.245Z,97034.97
2018-05-18T00:30:48.091Z,97035.49
2018-05-18T00:33:13.934Z,97027.94
2018-05-18T00:35:39.798Z,97022.94
2018-05-18T00:38:05.664Z,97024.48
2018-05-18T00:40:31.516Z,97026.09
2018-05-18T00:42:57.346Z,97028.13
2018-05-18T00:45:23.216Z,97025.33
2018-05-18T00:47:49.093Z,97023.93
2018-05-18T00:50:14.936Z,97021.55
2018-05-18T00:52:40.764Z,97022.08
2018-05-18T00:55:18.825Z,97020.78
2018-05-18T00:57:44.685Z,97028.66
2018-05-18T01:00:10.563Z,97025.06
2018-05-18T01:02:36.516Z,97025.01
2018-05-18T01:05:02.381Z,97025.94
2018-05-18T01:07:28.214Z,97028.80
2018-05-18T01:09:54.025Z,97031.39
2018-05-18T01:12:19.888Z,97025.86
2018-05-18T01:14:45.733Z,97030.30
2018-05-18T01:17:11.568Z,97029.91
2018-05-18T01:19:37.433Z,97030.50
2018-05-18T01:22:03.314Z,97028.59
2018-05-18T01:24:29.148Z,97031.55
2018-05-18T01:26:54.993Z,97034.00
2018-05-18T01:29:20.843Z,97038.31
2018-05-18T01:31:46.701Z,97038.20
2018-05-18T01:34:12.548Z,97037.42
2018-05-18T01:36:38.370Z,97037.59
2018-05-18T01:39:04.256Z,97031.62
2018-05-18T01:41:30.139Z,97034.30
2018-05-18T01:43:56.052Z,97037.09
2018-05-18T01:46:21.930Z,97037.49
2018-05-18T01:48:47.786Z,97038.11
2018-05-18T01:51:13.657Z,97040.88
2018-05-18T01:53:39.520Z,97037.88
2018-05-18T01:56:05.369Z,97038.13
2018-05-18T01:58:31.212Z,97046.38
2018-05-18T02:00:57.069Z,97045.44
2018-05-18T02:03:22.931Z,97042.72
2018-05-18T02:05:48.808Z,97039.12
2018-05-18T02:08:14.656Z,97043.67
2018-05-18T02:10:40.492Z,97048.14
2018-05-18T02:13:06.321Z,97050.83
2018-05-18T02:15:32.159Z,97050.98
2018-05-18T02:17:58.016Z,97060.28
2018-05-18T02:20:23.865Z,97054.73
2018-05-18T02:22:49.732Z,97055.55
2018-05-18T02:25:15.583Z,97054.85
2018-05-18T02:27:41.455Z,97053.11
2018-05-18T02:30:07.358Z,97047.45
2018-05-18T02:32:33.224Z,97037.92
2018-05-18T02:34:59.088Z,97044.56
2018-05-18T02:37:25.005Z,97043.17
2018-05-18T02:39:50.858Z,97046.52
2018-05-18T02:42:16.741Z,97053.20
2018-05-18T02:44:42.645Z,97052.06
2018-05-18T02:47:08.511Z,97052.54
2018-05-18T02:49:34.396Z,97054.95
2018-05-18T02:52:00.225Z,97058.40
2018-05-18T02:54:26.086Z,97055.50
2018-05-18T02:56:51.936Z,97051.14
2018-05-18T02:59:17.761Z,97051.67
2018-05-18T03:01:43.618Z,97061.30
2018-05-18T03:04:09.484Z,97056.04
2018-05-18T03:06:35.326Z,97051.77
2018-05-18T03:09:01.185Z,97057.14
2018-05-18T03:11:27.078Z,97057.07
2018-05-18T03:13:52.899Z,97057.38
2018-05-18T03:16:18.760Z,97056.41
2018-05-18T03:18:44.590Z,97073.95
2018-05-18T03:21:10.432Z,97073.95
2018-05-18T03:23:36.289Z,97071.38
2018-05-18T03:26:02.181Z,97069.59
2018-05-18T03:28:28.024Z,97071.98
2018-05-18T03:30:53.861Z,97072.79
2018-05-18T03:33:19.721Z,97071.02
2018-05-18T03:35:45.604Z,97077.43
2018-05-18T03:38:11.453Z,97079.56
2018-05-18T03:40:37.274Z,97080.33
2018-05-18T03:43:03.125Z,97072.27
2018-05-18T03:45:28.997Z,97072.48
2018-05-18T03:47:54.972Z,97072.11
2018-05-18T03:50:20.814Z,97076.95
2018-05-18T03:52:46.644Z,97075.47
2018-05-18T03:55:12.483Z,97069.10
2018-05-18T03:57:38.329Z,97075.14
2018-05-18T04:00:04.413Z,97078.89
2018-05-18T04:02:42.673Z,97063.00
2018-05-18T04:05:20.921Z,97085.52
2018-05-18T04:07:59.004Z,97086.92
2018-05-18T04:10:24.966Z,97094.30
2018-05-18T04:12:50.720Z,97095.56
2018-05-18T04:15:16.575Z,97092.80
2018-05-18T04:17:42.433Z,97099.02
2018-05-18T04:20:08.274Z,97093.97
2018-05-18T04:22:34.128Z,97097.20
2018-05-18T04:24:59.980Z,97099.39
2018-05-18T04:27:25.836Z,97092.45
2018-05-18T04:29:51.693Z,97092.02
2018-05-18T04:32:17.556Z,97095.87
2018-05-18T04:34:43.429Z,97092.11
2018-05-18T04:37:09.294Z,97101.00
2018-05-18T04:39:35.133Z,97100.11
2018-05-18T04:42:01.002Z,97108.06
2018-05-18T04:44:26.860Z,97110.74
2018-05-18T04:46:52.725Z,97105.81
2018-05-18T04:49:18.583Z,97114.72
2018-05-18T04:51:44.448Z,97112.60
2018-05-18T04:54:10.287Z,97104.45
2018-05-18T04:56:36.112Z,97109.08
2018-05-18T04:59:01.960Z,97118.53
2018-05-18T05:01:27.814Z,97114.06
2018-05-18T05:03:53.646Z,97116.95
2018-05-18T05:06:19.520Z,97120.39
2018-05-18T05:08:45.389Z,97110.52
2018-05-18T05:11:11.217Z,97117.88
2018-05-18T05:13:37.068Z,97124.98
2018-05-18T05:16:02.896Z,97125.45
2018-05-18T05:18:28.755Z,97126.46
2018-05-18T05:20:54.692Z,97126.70
2018-05-18T05:23:20.584Z,97131.83
2018-05-18T05:25:46.412Z,97137.00
2018-05-18T05:28:12.252Z,97135.05
2018-05-18T05:30:38.185Z,97134.13
2018-05-18T05:33:03.953Z,97137.19
2018-05-18T05:35:29.812Z,97133.23
2018-05-18T05:37:55.646Z,97130.16
2018-05-18T05:40:21.504Z,97139.34
2018-05-18T05:42:54.391Z,97135.30
2018-05-18T05:45:20.237Z,97144.79
2018-05-18T05:47:46.144Z,97147.94
2018-05-18T05:50:12.021Z,97143.53
2018-05-18T05:52:37.857Z,97147.23
2018-05-18T05:55:03.776Z,97145.53
2018-05-18T05:57:29.636Z,97139.84
2018-05-18T05:59:55.477Z,97147.73
2018-05-18T06:02:21.320Z,97137.28
2018-05-18T06:04:47.160Z,97150.80
2018-05-18T06:07:13.000Z,97148.66
2018-05-18T06:09:38.872Z,97150.94
2018-05-18T06:12:04.746Z,97154.91
2018-05-18T06:14:30.613Z,97159.23
2018-05-18T06:16:56.470Z,97155.39
2018-05-18T06:19:22.357Z,97152.25
2018-05-18T06:21:48.210Z,97149.09
2018-05-18T06:24:14.077Z,97146.42
2018-05-18T06:26:39.908Z,97148.02
2018-05-18T06:29:05.728Z,97158.66
2018-05-18T06:31:31.608Z,97162.41
2018-05-18T06:33:57.502Z,97158.37
2018-05-18T06:36:23.335Z,97155.84
2018-05-18T06:38:49.164Z,97153.02
2018-05-18T06:41:15.055Z,97155.22
2018-05-18T06:43:40.864Z,97160.14
2018-05-18T06:46:06.755Z,97165.26
2018-05-18T06:48:32.605Z,97159.24
2018-05-18T06:50:58.476Z,97157.03
2018-05-18T06:53:24.341Z,97167.86
2018-05-18T06:55:50.196Z,97160.73
2018-05-18T06:58:16.033Z,97160.21
2018-05-18T07:00:41.897Z,97161.99
2018-05-18T07:03:07.735Z,97158.55
2018-05-18T07:05:33.637Z,97163.23
2018-05-18T07:07:59.465Z,97166.63
2018-05-18T07:10:25.306Z,97155.13
2018-05-18T07:12:51.167Z,97155.66
2018-05-18T07:15:17.029Z,97155.48
2018-05-18T07:17:42.898Z,97147.27
2018-05-18T07:20:08.778Z,97149.94
2018-05-18T07:22:34.647Z,97142.13
2018-05-18T07:25:00.519Z,97142.20
2018-05-18T07:27:26.388Z,97152.77
2018-05-18T07:29:52.225Z,97145.23
2018-05-18T07:32:18.097Z,97143.25
2018-05-18T07:34:43.988Z,97145.67
2018-05-18T07:37:09.829Z,97148.84
2018-05-18T07:39:35.683Z,97150.93
2018-05-18T07:42:01.498Z,97155.03
2018-05-18T07:44:27.352Z,97144.32
2018-05-18T07:46:53.218Z,97152.69
2018-05-18T07:49:19.080Z,97141.41
2018-05-18T07:51:44.932Z,97138.55
2018-05-18T07:54:10.798Z,97138.55
2018-05-18T07:56:36.633Z,97142.92
2018-05-18T07:59:02.505Z,97145.77
2018-05-18T08:01:28.360Z,97147.08
2018-05-18T08:03:54.316Z,97152.35
2018-05-18T08:06:20.149Z,97148.90
2018-05-18T08:08:46.015Z,97147.05
2018-05-18T08:11:11.879Z,97141.35
2018-05-18T08:13:37.703Z,97139.58
2018-05-18T08:16:03.606Z,97132.66
2018-05-18T08:18:29.435Z,97130.20
2018-05-18T08:20:55.280Z,97138.44
2018-05-18T08:23:21.156Z,97137.45
2018-05-18T08:25:47.017Z,97136.98
2018-05-18T08:28:12.859Z,97141.86
2018-05-18T08:30:51.018Z,97135.08
2018-05-18T08:33:16.848Z,97129.08
2018-05-18T08:35:42.708Z,97137.00
2018-05-18T08:38:08.566Z,97140.75
2018-05-18T08:40:34.404Z,97147.30
2018-05-18T08:43:00.368Z,97143.16
2018-05-18T08:45:26.272Z,97140.22
2018-05-18T08:47:52.181Z,97138.98
2018-05-18T08:50:18.107Z,97135.69
2018-05-18T08:52:43.908Z,97135.58
2018-05-18T08:55:09.745Z,97143.58
2018-05-18T08:57:35.614Z,97141.65
2018-05-18T09:00:01.453Z,97139.75
2018-05-18T09:02:27.316Z,97134.86
2018-05-18T09:04:53.184Z,97132.53
2018-05-18T09:07:19.034Z,97137.47
2018-05-18T09:09:44.893Z,97133.78
2018-05-18T09:12:10.741Z,97137.22
2018-05-18T09:14:36.641Z,97144.19
2018-05-18T09:17:02.478Z,97148.16
2018-05-18T09:19:28.305Z,97150.73
2018-05-18T09:21:54.170Z,97149.36
2018-05-18T09:24:20.009Z,97158.30
2018-05-18T09:26:45.884Z,97162.72
2018-05-18T09:29:11.717Z,97160.00
2018-05-18T09:31:37.583Z,97163.44
2018-05-18T09:34:03.456Z,97155.64
2018-05-18T09:36:29.364Z,97167.47
2018-05-18T09:38:55.220Z,97166.98
2018-05-18T09:41:21.089Z,97160.57
2018-05-18T09:43:46.985Z,97163.56
2018-05-18T09:46:12.841Z,97162.33
2018-05-18T09:48:38.688Z,97158.59
2018-05-18T09:51:04.521Z,97166.54
2018-05-18T09:53:30.380Z,97172.52
2018-05-18T09:55:56.235Z,97162.38
2018-05-18T09:58:22.081Z,97169.35
2018-05-18T10:00:47.949Z,97155.65
2018-05-18T10:03:13.809Z,97155.73
2018-05-18T10:05:39.626Z,97150.97
2018-05-18T10:08:05.465Z,97149.64
2018-05-18T10:10:31.334Z,97156.16
2018-05-18T10:12:57.157Z,97159.22
2018-05-18T10:15:23.009Z,97153.27
2018-05-18T10:17:48.844Z,97154.98
2018-05-18T10:20:14.724Z,97150.39
2018-05-18T10:22:40.561Z,97155.66
2018-05-18T10:25:06.384Z,97159.44
2018-05-18T10:27:32.338Z,97155.88
2018-05-18T10:29:58.137Z,97153.98
2018-05-18T10:32:24.017Z,97157.73
2018-05-18T10:34:49.853Z,97143.40
2018-05-18T10:37:15.741Z,97153.59
2018-05-18T10:39:41.614Z,97153.05
2018-05-18T10:42:07.535Z,97146.97
2018-05-18T10:44:33.373Z,97151.01
2018-05-18T10:46:59.229Z,97142.55
2018-05-18T10:49:25.259Z,97146.83
2018-05-18T10:51:51.041Z,97142.00
2018-05-18T10:54:16.898Z,97141.25
2018-05-18T10:56:42.760Z,97132.17
2018-05-18T10:59:08.630Z,97137.41
2018-05-18T11:01:34.500Z,97140.33
2018-05-18T11:04:00.387Z,97140.89
2018-05-18T11:06:26.293Z,97130.56
2018-05-18T11:08:52.156Z,97127.61
2018-05-18T11:11:18.022Z,97127.08
2018-05-18T11:13:43.853Z,97122.05
2018-05-18T11:16:09.690Z,97122.42
2018-05-18T11:18:35.550Z,97121.88
2018-05-18T11:21:01.397Z,97117.31
2018-05-18T11:23:27.269Z,97108.28
2018-05-18T11:25:53.144Z,97105.92
2018-05-18T11:28:19.011Z,97104.56
2018-05-18T11:30:44.874Z,97103.50
2018-05-18T11:33:10.754Z,97099.52
2018-05-18T11:35:36.565Z,97102.36
2018-05-18T11:38:02.416Z,97095.14
2018-05-18T11:40:28.261Z,97104.63
2018-05-18T11:42:54.124Z,97092.31
2018-05-18T11:45:19.964Z,97095.48
2018-05-18T11:47:45.818Z,97092.58
2018-05-18T11:50:11.662Z,97091.19
2018-05-18T11:52:37.505Z,97094.38
2018-05-18T11:55:03.483Z,97099.84
2018-05-18T11:57:29.341Z,97088.45
2018-05-18T11:59:55.184Z,97087.55
2018-05-18T12:02:21.117Z,97086.31
2018-05-18T12:04:46.913Z,97087.83
2018-05-18T12:07:12.737Z,97090.13
2018-05-18T12:09:38.609Z,97086.30
2018-05-18T12:12:04.488Z,97086.58
2018-05-18T12:14:30.364Z,97086.36
2018-05-18T12:16:56.216Z,97078.38
2018-05-18T12:19:22.061Z,97083.00
2018-05-18T12:21:47.905Z,97085.53
2018-05-18T12:24:13.741Z,97084.77
2018-05-18T12:26:39.590Z,97079.56
2018-05-18T12:29:05.460Z,97081.03
2018-05-18T12:31:31.419Z,97082.84
2018-05-18T12:33:57.166Z,97072.64
2018-05-18T12:36:23.032Z,97075.78
2018-05-18T12:38:48.875Z,97081.02
2018-05-18T12:41:14.753Z,97081.16
2018-05-18T12:43:40.635Z,97079.66
2018-05-18T12:46:06.520Z,97084.08
2018-05-18T12:48:32.412Z,97077.45
2018-05-18T12:50:58.252Z,97075.91
2018-05-18T12:53:24.138Z,97072.45
2018-05-18T12:55:50.024Z,97068.39
2018-05-18T12:58:15.873Z,97065.30
2018-05-18T13:00:41.722Z,97066.09
2018-05-18T13:03:07.545Z,97064.92
2018-05-18T13:05:33.417Z,97061.64
2018-05-18T13:07:59.287Z,97064.32
2018-05-18T13:10:25.145Z,97063.21
2018-05-18T13:12:50.997Z,97052.84
2018-05-18T13:15:16.895Z,97055.19
2018-05-18T13:17:42.800Z,97054.69
2018-05-18T13:20:08.616Z,97057.64
2018-05-18T13:22:34.477Z,97053.19
2018-05-18T13:25:00.471Z,97049.73
2018-05-18T13:27:26.231Z,97049.30
2018-05-18T13:29:52.112Z,97046.85
2018-05-18T13:32:17.963Z,97037.86
2018-05-18T13:34:43.794Z,97036.17
2018-05-18T13:37:09.677Z,97041.84
2018-05-18T13:39:35.550Z,97045.61
2018-05-18T13:42:01.428Z,97045.98
2018-05-18T13:44:27.288Z,97051.53
2018-05-18T13:46:53.357Z,97041.61
2018-05-18T13:49:19.212Z,97042.81
2018-05-18T13:51:45.172Z,97034.11
2018-05-18T13:54:10.989Z,97036.53
2018-05-18T13:56:36.870Z,97036.33
2018-05-18T13:59:02.771Z,97035.44
2018-05-18T14:01:28.610Z,97030.23
2018-05-18T14:03:54.511Z,97022.63
2018-05-18T14:06:20.381Z,97026.97
2018-05-18T14:08:46.249Z,97029.48
2018-05-18T14:11:12.183Z,97032.08
2018-05-18T14:13:38.013Z,97029.39
2018-05-18T14:16:03.930Z,97025.59
2018-05-18T14:18:29.800Z,97027.43
2018-05-18T14:20:55.713Z,97022.60
2018-05-18T14:23:21.569Z,97015.64
2018-05-18T14:25:47.464Z,97024.02
2018-05-18T14:28:13.362Z,97013.37
2018-05-18T14:30:39.257Z,97019.05
2018-05-18T14:33:05.145Z,97022.27
2018-05-18T14:35:31.037Z,97021.95
2018-05-18T14:37:56.986Z,97016.97
2018-05-18T14:40:22.816Z,97013.68
2018-05-18T14:42:48.671Z,97011.33
2018-05-18T14:45:14.525Z,97010.54
2018-05-18T14:47:41.222Z,97011.59
2018-05-18T14:50:07.075Z,97019.86
2018-05-18T14:52:32.933Z,97010.86
2018-05-18T14:54:58.794Z,97004.02
2018-05-18T14:57:24.644Z,97006.81
2018-05-18T14:59:50.557Z,96996.33
2018-05-18T15:02:16.424Z,96998.29
2018-05-18T15:04:42.280Z,97003.58
2018-05-18T15:07:08.134Z,97013.50
2018-05-18T15:09:33.982Z,97001.52
2018-05-18T15:11:59.905Z,97002.55
2018-05-18T15:14:25.791Z,96997.50
2018-05-18T15:16:51.971Z,97001.81
2018-05-18T15:19:17.900Z,96997.93
2018-05-18T15:21:43.753Z,96995.95
2018-05-18T15:24:10.564Z,96995.42
2018-05-18T15:26:36.453Z,97003.90
2018-05-18T15:29:03.781Z,97001.75
2018-05-18T15:31:29.659Z,96998.69
2018-05-18T15:33:55.542Z,96996.18
2018-05-18T15:36:21.409Z,96998.87
2018-05-18T15:38:47.248Z,96999.86
2018-05-18T15:41:13.112Z,97002.00
2018-05-18T15:43:38.966Z,96999.05
2018-05-18T15:46:04.845Z,96996.18
2018-05-18T15:48:30.725Z,96995.59
2018-05-18T15:50:56.596Z,96991.91
2018-05-18T15:53:22.469Z,96999.77
2018-05-18T15:55:48.341Z,97000.42
2018-05-18T15:58:14.195Z,96999.11
2018-05-18T16:00:40.038Z,96989.77
2018-05-18T16:03:05.901Z,96987.61
2018-05-18T16:05:31.760Z,96987.30
2018-05-18T16:07:57.633Z,96984.84
2018-05-18T16:10:23.488Z,96983.70
2018-05-18T16:12:49.404Z,96983.77
2018-05-18T16:15:15.236Z,96988.00
2018-05-18T16:17:41.105Z,96984.67
2018-05-18T16:20:06.977Z,96987.42
2018-05-18T16:22:32.853Z,96990.50
2018-05-18T16:24:58.693Z,96990.98
2018-05-18T16:27:24.553Z,96988.52
2018-05-18T16:29:50.429Z,96992.50
2018-05-18T16:32:16.268Z,96996.10
2018-05-18T16:34:42.168Z,96997.64
2018-05-18T16:37:08.030Z,96999.27
2018-05-18T16:39:33.953Z,96990.60
2018-05-18T16:41:59.824Z,96988.83
2018-05-18T16:44:27.008Z,96994.28
2018-05-18T16:46:52.977Z,96992.84
2018-05-18T16:49:18.862Z,96994.72
2018-05-18T16:51:44.819Z,96988.81
2018-05-18T16:54:10.708Z,96987.42
2018-05-18T16:56:36.625Z,96990.30
2018-05-18T16:59:02.622Z,96991.50
2018-05-18T17:01:28.500Z,96995.00
2018-05-18T17:03:54.381Z,96991.22
2018-05-18T17:06:20.291Z,96989.33
2018-05-18T17:08:46.165Z,96997.37
2018-05-18T17:11:12.056Z,96999.54
2018-05-18T17:13:37.945Z,97005.71
2018-05-18T17:16:03.829Z,97004.15
2018-05-18T17:18:29.706Z,97005.40
2018-05-18T17:20:55.581Z,97006.33
2018-05-18T17:23:21.500Z,97009.42
2018-05-18T17:25:47.430Z,97011.98
2018-05-18T17:28:13.260Z,97010.30
2018-05-18T17:30:39.236Z,97015.34
2018-05-18T17:33:05.221Z,97011.70
2018-05-18T17:35:31.012Z,97018.05
2018-05-18T17:37:56.953Z,97013.68
2018-05-18T17:40:22.848Z,97012.13
2018-05-18T17:42:48.732Z,97012.59
2018-05-18T17:45:14.629Z,97016.36
2018-05-18T17:47:40.478Z,97015.25
2018-05-18T17:50:06.342Z,97014.57
2018-05-18T17:52:32.213Z,97016.05
2018-05-18T17:54:58.106Z,97015.63
2018-05-18T17:57:24.032Z,97022.91
2018-05-18T17:59:49.940Z,97020.80
2018-05-18T18:02:15.829Z,97033.16
2018-05-18T18:04:45.713Z,97024.95
2018-05-18T18:07:11.625Z,97029.05
2018-05-18T18:09:37.477Z,97024.55
2018-05-18T18:12:03.368Z,97024.48
2018-05-18T18:14:29.252Z,97028.47
2018-05-18T18:16:55.133Z,97027.22
2018-05-18T18:19:21.001Z,97026.28
2018-05-18T18:21:46.912Z,97030.42
2018-05-18T18:24:12.770Z,97038.06
2018-05-18T18:26:38.661Z,97037.38
2018-05-18T18:29:04.571Z,97032.59
2018-05-18T18:31:30.444Z,97038.52
2018-05-18T18:33:56.345Z,97035.96
2018-05-18T18:36:22.265Z,97052.00
2018-05-18T18:38:48.075Z,97048.38
2018-05-18T18:41:13.943Z,97054.65
2018-05-18T18:43:39.954Z,97053.31
2018-05-18T18:46:05.840Z,97060.92
2018-05-18T18:48:31.749Z,97062.06
2018-05-18T18:50:57.652Z,97069.97
2018-05-18T18:53:23.537Z,97068.98
2018-05-18T18:55:49.400Z,97069.86
2018-05-18T18:58:15.265Z,97079.52
2018-05-18T19:00:41.138Z,97078.78
2018-05-18T19:03:07.020Z,97081.88
2018-05-18T19:05:32.865Z,97086.95
2018-05-18T19:07:58.850Z,97081.84
2018-05-18T19:10:24.632Z,97087.61
2018-05-18T19:12:50.486Z,97088.17
2018-05-18T19:15:16.406Z,97095.19
2018-05-18T19:17:42.311Z,97094.41
2018-05-18T19:20:08.188Z,97106.58
2018-05-18T19:22:34.063Z,97099.70
2018-05-18T19:24:59.988Z,97108.08
2018-05-18T19:27:25.945Z,97112.00
2018-05-18T19:29:51.819Z,97118.10
2018-05-18T19:32:17.721Z,97121.05
2018-05-18T19:34:43.605Z,97120.22
2018-05-18T19:37:09.513Z,97120.98
2018-05-18T19:39:35.404Z,97129.95
2018-05-18T19:42:01.310Z,97133.23
2018-05-18T19:44:27.322Z,97131.37
2018-05-18T19:46:53.229Z,97127.33
2018-05-18T19:49:19.130Z,97130.16
2018-05-18T19:51:45.010Z,97134.71
2018-05-18T19:54:10.872Z,97133.08
2018-05-18T19:56:36.771Z,97135.14
2018-05-18T19:59:02.693Z,97147.09
2018-05-18T20:01:28.593Z,97144.44
2018-05-18T20:03:54.453Z,97148.51
2018-05-18T20:06:20.288Z,97144.95
2018-05-18T20:08:46.143Z,97150.56
2018-05-18T20:11:12.015Z,97150.17
2018-05-18T20:13:37.910Z,97153.78
2018-05-18T20:16:03.817Z,97152.40
2018-05-18T20:18:29.761Z,97156.30
2018-05-18T20:20:55.617Z,97157.48
2018-05-18T20:23:21.516Z,97154.90
2018-05-18T20:25:47.384Z,97157.04
2018-05-18T20:28:13.397Z,97156.88
2018-05-18T20:30:39.320Z,97154.45
2018-05-18T20:33:05.288Z,97158.04
2018-05-18T20:35:31.221Z,97156.72
2018-05-18T20:37:57.104Z,97157.09
2018-05-18T20:40:22.998Z,97153.42
2018-05-18T20:42:48.863Z,97156.89
2018-05-18T20:45:14.777Z,97161.77
2018-05-18T20:47:40.645Z,97157.23
2018-05-18T20:50:06.506Z,97161.96
2018-05-18T20:52:32.400Z,97165.27
2018-05-18T20:54:58.251Z,97170.75
2018-05-18T20:57:24.101Z,97172.58
2018-05-18T20:59:49.980Z,97171.85
2018-05-18T21:02:15.862Z,97175.36
2018-05-18T21:04:41.739Z,97173.59
2018-05-18T21:07:07.585Z,97181.63
2018-05-18T21:09:33.422Z,97182.66
2018-05-18T21:11:59.270Z,97188.05
2018-05-18T21:14:25.144Z,97190.52
2018-05-18T21:16:50.999Z,97189.23
2018-05-18T21:19:16.861Z,97189.67
2018-05-18T21:21:42.703Z,97183.48
2018-05-18T21:24:08.569Z,97194.47
2018-05-18T21:26:34.422Z,97197.22
2018-05-18T21:29:03.003Z,97202.99
2018-05-18T21:31:28.886Z,97210.11
2018-05-18T21:33:54.742Z,97199.70
2018-05-18T21:36:20.646Z,97208.27
2018-05-18T21:38:46.521Z,97210.34
2018-05-18T21:41:12.368Z,97209.11
2018-05-18T21:43:38.272Z,97214.65
2018-05-18T21:46:04.183Z,97207.23
2018-05-18T21:48:30.065Z,97212.12
2018-05-18T21:50:55.924Z,97210.59
2018-05-18T21:53:21.764Z,97214.89
2018-05-18T21:55:47.627Z,97207.81
2018-05-18T21:58:13.477Z,97209.98
2018-05-18T22:00:39.369Z,97209.24
2018-05-18T22:03:05.244Z,97206.16
2018-05-18T22:05:31.125Z,97207.68
2018-05-18T22:07:57.012Z,97203.77
2018-05-18T22:10:22.886Z,97207.18
2018-05-18T22:12:48.713Z,97203.86
2018-05-18T22:15:14.560Z,97212.45
2018-05-18T22:17:40.419Z,97213.80
2018-05-18T22:20:06.294Z,97212.02
2018-05-18T22:22:32.173Z,97217.14
2018-05-18T22:24:58.051Z,97216.91
2018-05-18T22:27:23.937Z,97221.97
2018-05-18T22:29:49.802Z,97216.47
2018-05-18T22:32:15.674Z,97199.33
2018-05-18T22:34:41.556Z,97199.80
2018-05-18T22:37:07.450Z,97194.70
2018-05-18T22:39:33.309Z,97201.32
2018-05-18T22:41:59.180Z,97206.98
2018-05-18T22:44:27.482Z,97199.17
2018-05-18T22:46:53.363Z,97191.62
2018-05-18T22:49:19.248Z,97193.95
2018-05-18T22:51:45.119Z,97189.97
2018-05-18T22:54:10.993Z,97192.66
2018-05-18T22:56:36.829Z,97190.69
2018-05-18T22:59:02.731Z,97184.47
2018-05-18T23:01:28.582Z,97184.24
2018-05-18T23:03:54.455Z,97188.69
2018-05-18T23:06:20.309Z,97188.98
2018-05-18T23:08:46.159Z,97181.85
2018-05-18T23:11:12.018Z,97184.94
2018-05-18T23:13:37.836Z,97184.50
2018-05-18T23:16:03.697Z,97179.07
2018-05-18T23:18:29.577Z,97186.54
2018-05-18T23:20:55.461Z,97191.31
2018-05-18T23:23:21.333Z,97184.53
2018-05-18T23:25:47.237Z,97186.24
2018-05-18T23:28:13.056Z,97186.31
2018-05-18T23:30:38.912Z,97185.05
2018-05-18T23:33:04.852Z,97183.88
2018-05-18T23:35:30.713Z,97185.19
2018-05-18T23:37:56.591Z,97185.74
2018-05-18T23:40:22.448Z,97184.40
2018-05-18T23:42:48.281Z,97183.00
2018-05-18T23:45:14.126Z,97173.11
2018-05-18T23:47:39.977Z,97178.54
2018-05-18T23:50:05.837Z,97180.72
2018-05-18T23:52:31.748Z,97181.27
2018-05-18T23:54:57.608Z,97171.82
2018-05-18T23:57:23.462Z,97172.02
2018-05-18T23:59:49.305Z,97179.00
